sensor_id;sensor_type;location;lat;lon;timestamp;P1;durP1;ratioP1;P2;durP2;ratioP2
49310;SDS011;35177;45.900;5.946;2023-06-22T00:01:52;20.63;;;5.05;;
49310;SDS011;35177;45.900;5.946;2023-06-22T00:04:17;11.75;;;4.82;;
49310;SDS011;35177;45.900;5.946;2023-06-22T00:06:43;10.07;;;4.82;;
49310;SDS011;35177;45.900;5.946;2023-06-22T00:09:08;14.05;;;4.68;;
49310;SDS011;35177;45.900;5.946;2023-06-22T00:11:35;12.93;;;4.63;;
49310;SDS011;35177;45.900;5.946;2023-06-22T00:14:01;13.40;;;4.22;;
49310;SDS011;35177;45.900;5.946;2023-06-22T00:16:27;9.10;;;4.95;;
49310;SDS011;35177;45.900;5.946;2023-06-22T00:18:52;11.00;;;4.82;;
49310;SDS011;35177;45.900;5.946;2023-06-22T00:21:18;11.07;;;4.80;;
49310;SDS011;35177;45.900;5.946;2023-06-22T00:23:45;10.65;;;5.35;;
49310;SDS011;35177;45.900;5.946;2023-06-22T00:26:12;13.48;;;4.80;;
49310;SDS011;35177;45.900;5.946;2023-06-22T00:28:38;14.98;;;5.10;;
49310;SDS011;35177;45.900;5.946;2023-06-22T00:31:04;9.27;;;4.63;;
49310;SDS011;35177;45.900;5.946;2023-06-22T00:33:29;11.52;;;4.88;;
49310;SDS011;35177;45.900;5.946;2023-06-22T00:35:55;9.13;;;4.80;;
49310;SDS011;35177;45.900;5.946;2023-06-22T00:38:20;15.43;;;4.75;;
49310;SDS011;35177;45.900;5.946;2023-06-22T00:40:46;9.65;;;4.72;;
49310;SDS011;35177;45.900;5.946;2023-06-22T00:43:11;10.07;;;4.32;;
49310;SDS011;35177;45.900;5.946;2023-06-22T00:45:37;16.40;;;5.00;;
49310;SDS011;35177;45.900;5.946;2023-06-22T00:48:03;13.57;;;5.13;;
49310;SDS011;35177;45.900;5.946;2023-06-22T00:50:30;8.80;;;4.90;;
49310;SDS011;35177;45.900;5.946;2023-06-22T00:52:59;15.77;;;5.20;;
49310;SDS011;35177;45.900;5.946;2023-06-22T00:55:26;12.27;;;4.40;;
49310;SDS011;35177;45.900;5.946;2023-06-22T00:57:52;9.52;;;4.70;;
49310;SDS011;35177;45.900;5.946;2023-06-22T01:00:20;13.57;;;4.97;;
49310;SDS011;35177;45.900;5.946;2023-06-22T01:02:50;8.85;;;4.72;;
49310;SDS011;35177;45.900;5.946;2023-06-22T01:05:19;20.77;;;4.53;;
49310;SDS011;35177;45.900;5.946;2023-06-22T01:10:44;7.85;;;4.78;;
49310;SDS011;35177;45.900;5.946;2023-06-22T01:16:16;17.08;;;5.13;;
49310;SDS011;35177;45.900;5.946;2023-06-22T01:18:49;14.57;;;4.75;;
49310;SDS011;35177;45.900;5.946;2023-06-22T01:21:18;7.93;;;4.45;;
49310;SDS011;35177;45.900;5.946;2023-06-22T01:26:29;21.73;;;5.78;;
49310;SDS011;35177;45.900;5.946;2023-06-22T01:28:59;13.98;;;5.28;;
49310;SDS011;35177;45.900;5.946;2023-06-22T01:31:27;12.55;;;5.90;;
49310;SDS011;35177;45.900;5.946;2023-06-22T01:34:04;15.02;;;5.35;;
49310;SDS011;35177;45.900;5.946;2023-06-22T01:36:31;12.40;;;5.72;;
49310;SDS011;35177;45.900;5.946;2023-06-22T01:38:58;16.05;;;5.93;;
49310;SDS011;35177;45.900;5.946;2023-06-22T01:41:25;17.90;;;6.00;;
49310;SDS011;35177;45.900;5.946;2023-06-22T01:43:52;18.55;;;6.60;;
49310;SDS011;35177;45.900;5.946;2023-06-22T01:46:19;14.48;;;5.65;;
49310;SDS011;35177;45.900;5.946;2023-06-22T01:48:46;14.70;;;5.97;;
49310;SDS011;35177;45.900;5.946;2023-06-22T01:51:12;15.38;;;6.00;;
49310;SDS011;35177;45.900;5.946;2023-06-22T01:53:38;15.52;;;5.80;;
49310;SDS011;35177;45.900;5.946;2023-06-22T01:56:04;10.45;;;5.63;;
49310;SDS011;35177;45.900;5.946;2023-06-22T01:58:30;10.93;;;5.38;;
49310;SDS011;35177;45.900;5.946;2023-06-22T02:01:05;12.25;;;5.38;;
49310;SDS011;35177;45.900;5.946;2023-06-22T02:03:38;10.73;;;4.78;;
49310;SDS011;35177;45.900;5.946;2023-06-22T02:06:08;12.88;;;5.07;;
49310;SDS011;35177;45.900;5.946;2023-06-22T02:08:41;10.68;;;5.10;;
49310;SDS011;35177;45.900;5.946;2023-06-22T02:11:12;17.52;;;5.75;;
49310;SDS011;35177;45.900;5.946;2023-06-22T02:13:40;11.95;;;5.63;;
49310;SDS011;35177;45.900;5.946;2023-06-22T02:16:08;10.38;;;5.57;;
49310;SDS011;35177;45.900;5.946;2023-06-22T02:18:36;9.07;;;4.75;;
49310;SDS011;35177;45.900;5.946;2023-06-22T02:21:02;11.77;;;5.80;;
49310;SDS011;35177;45.900;5.946;2023-06-22T02:23:28;7.72;;;4.88;;
49310;SDS011;35177;45.900;5.946;2023-06-22T02:25:53;9.15;;;5.03;;
49310;SDS011;35177;45.900;5.946;2023-06-22T02:28:19;15.18;;;5.07;;
49310;SDS011;35177;45.900;5.946;2023-06-22T02:30:45;13.65;;;5.65;;
49310;SDS011;35177;45.900;5.946;2023-06-22T02:33:10;17.48;;;5.18;;
49310;SDS011;35177;45.900;5.946;2023-06-22T02:35:36;9.32;;;5.25;;
49310;SDS011;35177;45.900;5.946;2023-06-22T02:38:03;10.70;;;5.20;;
49310;SDS011;35177;45.900;5.946;2023-06-22T02:40:29;11.00;;;5.07;;
49310;SDS011;35177;45.900;5.946;2023-06-22T02:42:55;22.63;;;5.15;;
49310;SDS011;35177;45.900;5.946;2023-06-22T02:45:23;14.90;;;5.53;;
49310;SDS011;35177;45.900;5.946;2023-06-22T02:47:48;14.60;;;5.53;;
49310;SDS011;35177;45.900;5.946;2023-06-22T02:50:14;9.50;;;5.22;;
49310;SDS011;35177;45.900;5.946;2023-06-22T02:52:39;11.48;;;5.45;;
49310;SDS011;35177;45.900;5.946;2023-06-22T02:55:05;10.40;;;4.53;;
49310;SDS011;35177;45.900;5.946;2023-06-22T02:57:32;13.13;;;4.97;;
49310;SDS011;35177;45.900;5.946;2023-06-22T02:59:58;13.25;;;4.72;;
49310;SDS011;35177;45.900;5.946;2023-06-22T03:02:23;14.23;;;5.75;;
49310;SDS011;35177;45.900;5.946;2023-06-22T03:04:49;16.90;;;5.18;;
49310;SDS011;35177;45.900;5.946;2023-06-22T03:07:15;14.15;;;5.25;;
49310;SDS011;35177;45.900;5.946;2023-06-22T03:09:42;10.75;;;5.68;;
49310;SDS011;35177;45.900;5.946;2023-06-22T03:12:08;12.48;;;4.68;;
49310;SDS011;35177;45.900;5.946;2023-06-22T03:14:33;17.85;;;6.55;;
49310;SDS011;35177;45.900;5.946;2023-06-22T03:16:59;15.15;;;6.25;;
49310;SDS011;35177;45.900;5.946;2023-06-22T03:19:28;9.30;;;5.47;;
49310;SDS011;35177;45.900;5.946;2023-06-22T03:21:56;9.80;;;5.10;;
49310;SDS011;35177;45.900;5.946;2023-06-22T03:24:22;14.43;;;5.78;;
49310;SDS011;35177;45.900;5.946;2023-06-22T03:26:48;14.77;;;5.55;;
49310;SDS011;35177;45.900;5.946;2023-06-22T03:29:13;12.95;;;6.15;;
49310;SDS011;35177;45.900;5.946;2023-06-22T03:31:39;17.25;;;6.85;;
49310;SDS011;35177;45.900;5.946;2023-06-22T03:34:04;16.80;;;6.20;;
49310;SDS011;35177;45.900;5.946;2023-06-22T03:36:30;14.70;;;6.35;;
49310;SDS011;35177;45.900;5.946;2023-06-22T03:38:55;21.67;;;6.20;;
49310;SDS011;35177;45.900;5.946;2023-06-22T03:41:21;10.57;;;5.18;;
49310;SDS011;35177;45.900;5.946;2023-06-22T03:43:46;10.20;;;5.00;;
49310;SDS011;35177;45.900;5.946;2023-06-22T03:46:12;17.35;;;5.70;;
49310;SDS011;35177;45.900;5.946;2023-06-22T03:48:38;14.38;;;5.32;;
49310;SDS011;35177;45.900;5.946;2023-06-22T03:51:03;12.82;;;6.15;;
49310;SDS011;35177;45.900;5.946;2023-06-22T03:53:29;14.27;;;5.78;;
49310;SDS011;35177;45.900;5.946;2023-06-22T03:55:55;14.57;;;5.88;;
49310;SDS011;35177;45.900;5.946;2023-06-22T03:58:21;18.60;;;6.32;;
49310;SDS011;35177;45.900;5.946;2023-06-22T04:00:47;16.00;;;6.78;;
49310;SDS011;35177;45.900;5.946;2023-06-22T04:03:13;11.48;;;6.13;;
49310;SDS011;35177;45.900;5.946;2023-06-22T04:05:40;23.17;;;6.70;;
49310;SDS011;35177;45.900;5.946;2023-06-22T04:08:05;13.80;;;5.88;;
49310;SDS011;35177;45.900;5.946;2023-06-22T04:10:31;12.48;;;6.20;;
49310;SDS011;35177;45.900;5.946;2023-06-22T04:12:57;17.25;;;7.72;;
49310;SDS011;35177;45.900;5.946;2023-06-22T04:15:22;11.38;;;6.20;;
49310;SDS011;35177;45.900;5.946;2023-06-22T04:17:48;14.05;;;5.90;;
49310;SDS011;35177;45.900;5.946;2023-06-22T04:20:13;17.75;;;6.50;;
49310;SDS011;35177;45.900;5.946;2023-06-22T04:22:39;12.90;;;6.50;;
49310;SDS011;35177;45.900;5.946;2023-06-22T04:25:05;15.68;;;6.72;;
49310;SDS011;35177;45.900;5.946;2023-06-22T04:27:32;14.75;;;6.45;;
49310;SDS011;35177;45.900;5.946;2023-06-22T04:30:02;15.15;;;6.50;;
49310;SDS011;35177;45.900;5.946;2023-06-22T04:32:29;15.98;;;6.60;;
49310;SDS011;35177;45.900;5.946;2023-06-22T04:34:54;11.55;;;6.70;;
49310;SDS011;35177;45.900;5.946;2023-06-22T04:37:20;17.80;;;6.80;;
49310;SDS011;35177;45.900;5.946;2023-06-22T04:39:48;16.83;;;7.00;;
49310;SDS011;35177;45.900;5.946;2023-06-22T04:42:15;17.15;;;6.80;;
49310;SDS011;35177;45.900;5.946;2023-06-22T04:44:40;14.25;;;7.43;;
49310;SDS011;35177;45.900;5.946;2023-06-22T04:47:07;15.85;;;6.63;;
49310;SDS011;35177;45.900;5.946;2023-06-22T04:49:36;14.57;;;6.80;;
49310;SDS011;35177;45.900;5.946;2023-06-22T04:54:29;16.38;;;6.80;;
49310;SDS011;35177;45.900;5.946;2023-06-22T04:56:57;16.60;;;6.38;;
49310;SDS011;35177;45.900;5.946;2023-06-22T04:59:35;15.63;;;6.28;;
49310;SDS011;35177;45.900;5.946;2023-06-22T05:02:01;15.40;;;6.18;;
49310;SDS011;35177;45.900;5.946;2023-06-22T05:04:28;16.05;;;6.28;;
49310;SDS011;35177;45.900;5.946;2023-06-22T05:06:58;16.40;;;7.68;;
49310;SDS011;35177;45.900;5.946;2023-06-22T05:09:25;13.57;;;7.65;;
49310;SDS011;35177;45.900;5.946;2023-06-22T05:11:51;15.07;;;5.80;;
49310;SDS011;35177;45.900;5.946;2023-06-22T05:14:16;11.57;;;5.85;;
49310;SDS011;35177;45.900;5.946;2023-06-22T05:16:43;19.20;;;6.22;;
49310;SDS011;35177;45.900;5.946;2023-06-22T05:19:09;14.57;;;5.68;;
49310;SDS011;35177;45.900;5.946;2023-06-22T05:21:35;13.70;;;5.45;;
49310;SDS011;35177;45.900;5.946;2023-06-22T05:24:00;12.60;;;6.15;;
49310;SDS011;35177;45.900;5.946;2023-06-22T05:26:28;15.68;;;7.40;;
49310;SDS011;35177;45.900;5.946;2023-06-22T05:28:54;15.13;;;7.70;;
49310;SDS011;35177;45.900;5.946;2023-06-22T05:31:20;14.68;;;7.88;;
49310;SDS011;35177;45.900;5.946;2023-06-22T05:33:46;18.25;;;7.70;;
49310;SDS011;35177;45.900;5.946;2023-06-22T05:36:13;15.27;;;7.55;;
49310;SDS011;35177;45.900;5.946;2023-06-22T05:38:39;13.95;;;6.55;;
49310;SDS011;35177;45.900;5.946;2023-06-22T05:41:05;15.85;;;7.53;;
49310;SDS011;35177;45.900;5.946;2023-06-22T05:43:31;17.52;;;7.13;;
49310;SDS011;35177;45.900;5.946;2023-06-22T05:45:57;14.93;;;7.07;;
49310;SDS011;35177;45.900;5.946;2023-06-22T05:48:23;15.02;;;6.85;;
49310;SDS011;35177;45.900;5.946;2023-06-22T05:50:49;12.55;;;6.15;;
49310;SDS011;35177;45.900;5.946;2023-06-22T05:53:16;21.38;;;6.38;;
49310;SDS011;35177;45.900;5.946;2023-06-22T05:55:41;20.25;;;6.93;;
49310;SDS011;35177;45.900;5.946;2023-06-22T05:58:07;16.13;;;6.55;;
49310;SDS011;35177;45.900;5.946;2023-06-22T06:00:33;12.90;;;5.70;;
49310;SDS011;35177;45.900;5.946;2023-06-22T06:02:59;14.75;;;6.05;;
49310;SDS011;35177;45.900;5.946;2023-06-22T06:05:31;13.55;;;5.75;;
49310;SDS011;35177;45.900;5.946;2023-06-22T06:07:58;15.52;;;5.55;;
49310;SDS011;35177;45.900;5.946;2023-06-22T06:10:25;15.48;;;6.20;;
49310;SDS011;35177;45.900;5.946;2023-06-22T06:12:50;12.38;;;6.10;;
49310;SDS011;35177;45.900;5.946;2023-06-22T06:15:17;10.80;;;5.65;;
49310;SDS011;35177;45.900;5.946;2023-06-22T06:17:46;12.80;;;5.47;;
49310;SDS011;35177;45.900;5.946;2023-06-22T06:20:18;18.23;;;6.50;;
49310;SDS011;35177;45.900;5.946;2023-06-22T06:22:45;16.88;;;5.68;;
49310;SDS011;35177;45.900;5.946;2023-06-22T06:25:12;16.05;;;5.88;;
49310;SDS011;35177;45.900;5.946;2023-06-22T06:27:44;13.82;;;6.30;;
49310;SDS011;35177;45.900;5.946;2023-06-22T06:30:11;14.63;;;5.63;;
49310;SDS011;35177;45.900;5.946;2023-06-22T06:32:38;12.85;;;6.25;;
49310;SDS011;35177;45.900;5.946;2023-06-22T06:35:07;12.77;;;5.95;;
49310;SDS011;35177;45.900;5.946;2023-06-22T06:37:40;15.15;;;6.07;;
49310;SDS011;35177;45.900;5.946;2023-06-22T06:40:07;14.10;;;6.78;;
49310;SDS011;35177;45.900;5.946;2023-06-22T06:42:35;14.55;;;6.10;;
49310;SDS011;35177;45.900;5.946;2023-06-22T06:45:28;13.95;;;6.22;;
49310;SDS011;35177;45.900;5.946;2023-06-22T06:47:54;12.02;;;5.47;;
49310;SDS011;35177;45.900;5.946;2023-06-22T06:50:19;12.45;;;6.18;;
49310;SDS011;35177;45.900;5.946;2023-06-22T06:52:45;14.63;;;6.18;;
49310;SDS011;35177;45.900;5.946;2023-06-22T06:55:11;15.27;;;6.25;;
49310;SDS011;35177;45.900;5.946;2023-06-22T06:57:39;11.02;;;6.38;;
49310;SDS011;35177;45.900;5.946;2023-06-22T07:00:10;13.52;;;6.50;;
49310;SDS011;35177;45.900;5.946;2023-06-22T07:02:38;14.02;;;7.38;;
49310;SDS011;35177;45.900;5.946;2023-06-22T07:05:07;14.82;;;5.90;;
49310;SDS011;35177;45.900;5.946;2023-06-22T07:07:33;14.02;;;6.53;;
49310;SDS011;35177;45.900;5.946;2023-06-22T07:09:59;18.15;;;7.20;;
49310;SDS011;35177;45.900;5.946;2023-06-22T07:12:25;11.13;;;6.53;;
49310;SDS011;35177;45.900;5.946;2023-06-22T07:14:51;13.85;;;7.05;;
49310;SDS011;35177;45.900;5.946;2023-06-22T07:17:17;11.68;;;5.88;;
49310;SDS011;35177;45.900;5.946;2023-06-22T07:19:43;20.25;;;6.80;;
49310;SDS011;35177;45.900;5.946;2023-06-22T07:22:08;15.40;;;6.22;;
49310;SDS011;35177;45.900;5.946;2023-06-22T07:24:34;19.20;;;6.00;;
49310;SDS011;35177;45.900;5.946;2023-06-22T07:26:59;11.60;;;5.53;;
49310;SDS011;35177;45.900;5.946;2023-06-22T07:29:25;14.48;;;5.53;;
49310;SDS011;35177;45.900;5.946;2023-06-22T07:31:51;13.05;;;5.43;;
49310;SDS011;35177;45.900;5.946;2023-06-22T07:34:18;10.80;;;5.90;;
49310;SDS011;35177;45.900;5.946;2023-06-22T07:36:44;16.85;;;6.18;;
49310;SDS011;35177;45.900;5.946;2023-06-22T07:39:09;20.17;;;6.68;;
49310;SDS011;35177;45.900;5.946;2023-06-22T07:41:35;13.27;;;5.95;;
49310;SDS011;35177;45.900;5.946;2023-06-22T07:44:01;15.57;;;5.97;;
49310;SDS011;35177;45.900;5.946;2023-06-22T07:46:28;10.27;;;5.50;;
49310;SDS011;35177;45.900;5.946;2023-06-22T07:48:55;16.65;;;6.00;;
49310;SDS011;35177;45.900;5.946;2023-06-22T07:51:21;13.80;;;6.38;;
49310;SDS011;35177;45.900;5.946;2023-06-22T07:53:47;14.18;;;6.70;;
49310;SDS011;35177;45.900;5.946;2023-06-22T07:56:13;11.73;;;5.45;;
49310;SDS011;35177;45.900;5.946;2023-06-22T07:58:38;11.95;;;5.45;;
49310;SDS011;35177;45.900;5.946;2023-06-22T08:01:04;15.05;;;6.20;;
49310;SDS011;35177;45.900;5.946;2023-06-22T08:03:31;13.95;;;6.07;;
49310;SDS011;35177;45.900;5.946;2023-06-22T08:05:56;13.43;;;5.35;;
49310;SDS011;35177;45.900;5.946;2023-06-22T08:08:22;14.68;;;6.20;;
49310;SDS011;35177;45.900;5.946;2023-06-22T08:10:48;13.55;;;6.00;;
49310;SDS011;35177;45.900;5.946;2023-06-22T08:13:13;13.40;;;5.97;;
49310;SDS011;35177;45.900;5.946;2023-06-22T08:15:39;13.98;;;6.40;;
49310;SDS011;35177;45.900;5.946;2023-06-22T08:18:04;12.05;;;5.82;;
49310;SDS011;35177;45.900;5.946;2023-06-22T08:20:30;17.23;;;5.97;;
49310;SDS011;35177;45.900;5.946;2023-06-22T08:22:56;10.85;;;5.45;;
49310;SDS011;35177;45.900;5.946;2023-06-22T08:25:23;18.98;;;6.68;;
49310;SDS011;35177;45.900;5.946;2023-06-22T08:27:48;19.48;;;6.03;;
49310;SDS011;35177;45.900;5.946;2023-06-22T08:30:14;18.73;;;6.82;;
49310;SDS011;35177;45.900;5.946;2023-06-22T08:32:40;17.02;;;6.57;;
49310;SDS011;35177;45.900;5.946;2023-06-22T08:35:06;14.30;;;5.88;;
49310;SDS011;35177;45.900;5.946;2023-06-22T08:37:33;18.60;;;6.20;;
49310;SDS011;35177;45.900;5.946;2023-06-22T08:40:01;14.85;;;5.95;;
49310;SDS011;35177;45.900;5.946;2023-06-22T08:42:33;11.45;;;5.88;;
49310;SDS011;35177;45.900;5.946;2023-06-22T08:44:58;13.95;;;5.53;;
49310;SDS011;35177;45.900;5.946;2023-06-22T08:47:24;14.10;;;5.45;;
49310;SDS011;35177;45.900;5.946;2023-06-22T08:49:52;9.75;;;5.70;;
49310;SDS011;35177;45.900;5.946;2023-06-22T08:52:18;15.93;;;6.97;;
49310;SDS011;35177;45.900;5.946;2023-06-22T08:54:45;14.35;;;6.05;;
49310;SDS011;35177;45.900;5.946;2023-06-22T08:57:10;14.40;;;5.70;;
49310;SDS011;35177;45.900;5.946;2023-06-22T08:59:36;12.48;;;6.07;;
49310;SDS011;35177;45.900;5.946;2023-06-22T09:02:01;12.45;;;5.50;;
49310;SDS011;35177;45.900;5.946;2023-06-22T09:04:27;13.98;;;5.70;;
49310;SDS011;35177;45.900;5.946;2023-06-22T09:06:52;13.70;;;5.70;;
49310;SDS011;35177;45.900;5.946;2023-06-22T09:09:18;11.55;;;5.40;;
49310;SDS011;35177;45.900;5.946;2023-06-22T09:11:44;12.73;;;5.35;;
49310;SDS011;35177;45.900;5.946;2023-06-22T09:14:10;12.15;;;5.72;;
49310;SDS011;35177;45.900;5.946;2023-06-22T09:16:36;10.32;;;5.57;;
49310;SDS011;35177;45.900;5.946;2023-06-22T09:19:02;13.00;;;5.70;;
49310;SDS011;35177;45.900;5.946;2023-06-22T09:21:28;13.23;;;5.80;;
49310;SDS011;35177;45.900;5.946;2023-06-22T09:23:54;16.85;;;6.13;;
49310;SDS011;35177;45.900;5.946;2023-06-22T09:26:20;15.57;;;5.65;;
49310;SDS011;35177;45.900;5.946;2023-06-22T09:28:45;14.90;;;5.50;;
49310;SDS011;35177;45.900;5.946;2023-06-22T09:31:11;16.63;;;6.15;;
49310;SDS011;35177;45.900;5.946;2023-06-22T09:33:37;11.90;;;5.47;;
49310;SDS011;35177;45.900;5.946;2023-06-22T09:36:05;15.85;;;5.28;;
49310;SDS011;35177;45.900;5.946;2023-06-22T09:38:41;14.90;;;6.60;;
49310;SDS011;35177;45.900;5.946;2023-06-22T09:41:06;10.43;;;4.13;;
49310;SDS011;35177;45.900;5.946;2023-06-22T09:43:32;19.10;;;5.10;;
49310;SDS011;35177;45.900;5.946;2023-06-22T09:46:00;10.77;;;4.40;;
49310;SDS011;35177;45.900;5.946;2023-06-22T09:48:27;14.63;;;4.00;;
49310;SDS011;35177;45.900;5.946;2023-06-22T09:50:53;17.02;;;4.70;;
49310;SDS011;35177;45.900;5.946;2023-06-22T09:53:19;14.43;;;3.85;;
49310;SDS011;35177;45.900;5.946;2023-06-22T09:55:44;12.75;;;4.13;;
49310;SDS011;35177;45.900;5.946;2023-06-22T09:58:09;8.90;;;3.65;;
49310;SDS011;35177;45.900;5.946;2023-06-22T10:00:35;11.13;;;3.72;;
49310;SDS011;35177;45.900;5.946;2023-06-22T10:03:00;13.07;;;5.07;;
49310;SDS011;35177;45.900;5.946;2023-06-22T10:05:26;9.75;;;5.18;;
49310;SDS011;35177;45.900;5.946;2023-06-22T10:07:51;10.20;;;5.40;;
49310;SDS011;35177;45.900;5.946;2023-06-22T10:10:17;8.57;;;5.45;;
49310;SDS011;35177;45.900;5.946;2023-06-22T10:12:44;14.88;;;5.90;;
49310;SDS011;35177;45.900;5.946;2023-06-22T10:15:11;11.38;;;5.75;;
49310;SDS011;35177;45.900;5.946;2023-06-22T10:17:37;13.43;;;6.15;;
49310;SDS011;35177;45.900;5.946;2023-06-22T10:20:03;13.18;;;5.93;;
49310;SDS011;35177;45.900;5.946;2023-06-22T10:22:40;10.32;;;5.68;;
49310;SDS011;35177;45.900;5.946;2023-06-22T10:25:06;8.55;;;5.50;;
49310;SDS011;35177;45.900;5.946;2023-06-22T10:27:33;11.77;;;5.55;;
49310;SDS011;35177;45.900;5.946;2023-06-22T10:29:59;9.45;;;5.63;;
49310;SDS011;35177;45.900;5.946;2023-06-22T10:32:24;9.98;;;4.45;;
49310;SDS011;35177;45.900;5.946;2023-06-22T10:34:49;8.70;;;4.55;;
49310;SDS011;35177;45.900;5.946;2023-06-22T10:37:15;12.20;;;4.68;;
49310;SDS011;35177;45.900;5.946;2023-06-22T10:39:40;14.85;;;5.80;;
49310;SDS011;35177;45.900;5.946;2023-06-22T10:42:06;12.85;;;6.13;;
49310;SDS011;35177;45.900;5.946;2023-06-22T10:44:32;9.77;;;5.47;;
49310;SDS011;35177;45.900;5.946;2023-06-22T10:46:58;9.60;;;4.80;;
49310;SDS011;35177;45.900;5.946;2023-06-22T10:49:23;13.38;;;4.85;;
49310;SDS011;35177;45.900;5.946;2023-06-22T10:51:49;13.90;;;6.07;;
49310;SDS011;35177;45.900;5.946;2023-06-22T10:54:14;14.02;;;6.50;;
49310;SDS011;35177;45.900;5.946;2023-06-22T10:56:42;10.93;;;5.70;;
49310;SDS011;35177;45.900;5.946;2023-06-22T10:59:07;18.30;;;5.95;;
49310;SDS011;35177;45.900;5.946;2023-06-22T11:01:33;14.73;;;5.93;;
49310;SDS011;35177;45.900;5.946;2023-06-22T11:03:58;12.68;;;6.65;;
49310;SDS011;35177;45.900;5.946;2023-06-22T11:06:24;13.40;;;5.82;;
49310;SDS011;35177;45.900;5.946;2023-06-22T11:08:49;14.35;;;5.28;;
49310;SDS011;35177;45.900;5.946;2023-06-22T11:11:15;14.40;;;4.88;;
49310;SDS011;35177;45.900;5.946;2023-06-22T11:13:42;11.88;;;4.13;;
49310;SDS011;35177;45.900;5.946;2023-06-22T11:16:09;6.47;;;2.90;;
49310;SDS011;35177;45.900;5.946;2023-06-22T11:18:35;4.75;;;2.30;;
49310;SDS011;35177;45.900;5.946;2023-06-22T11:21:01;13.13;;;3.03;;
49310;SDS011;35177;45.900;5.946;2023-06-22T11:23:26;8.32;;;2.90;;
49310;SDS011;35177;45.900;5.946;2023-06-22T11:25:53;12.60;;;2.67;;
49310;SDS011;35177;45.900;5.946;2023-06-22T11:28:19;9.20;;;2.47;;
49310;SDS011;35177;45.900;5.946;2023-06-22T11:30:44;5.65;;;2.85;;
49310;SDS011;35177;45.900;5.946;2023-06-22T11:33:10;11.55;;;2.20;;
49310;SDS011;35177;45.900;5.946;2023-06-22T11:35:35;6.78;;;2.28;;
49310;SDS011;35177;45.900;5.946;2023-06-22T11:38:01;5.70;;;2.42;;
49310;SDS011;35177;45.900;5.946;2023-06-22T11:40:28;6.95;;;2.20;;
49310;SDS011;35177;45.900;5.946;2023-06-22T11:42:53;8.32;;;2.35;;
49310;SDS011;35177;45.900;5.946;2023-06-22T11:45:19;12.30;;;2.08;;
49310;SDS011;35177;45.900;5.946;2023-06-22T11:47:45;8.13;;;2.72;;
49310;SDS011;35177;45.900;5.946;2023-06-22T11:50:11;7.25;;;1.98;;
49310;SDS011;35177;45.900;5.946;2023-06-22T11:52:36;6.43;;;2.13;;
49310;SDS011;35177;45.900;5.946;2023-06-22T11:55:02;12.75;;;2.72;;
49310;SDS011;35177;45.900;5.946;2023-06-22T11:57:30;6.88;;;2.17;;
49310;SDS011;35177;45.900;5.946;2023-06-22T11:59:57;11.93;;;2.35;;
49310;SDS011;35177;45.900;5.946;2023-06-22T12:02:23;8.93;;;2.33;;
49310;SDS011;35177;45.900;5.946;2023-06-22T12:04:48;7.70;;;2.50;;
49310;SDS011;35177;45.900;5.946;2023-06-22T12:07:17;8.98;;;2.20;;
49310;SDS011;35177;45.900;5.946;2023-06-22T12:09:43;11.10;;;2.42;;
49310;SDS011;35177;45.900;5.946;2023-06-22T12:12:09;7.28;;;2.17;;
49310;SDS011;35177;45.900;5.946;2023-06-22T12:14:34;8.52;;;2.70;;
49310;SDS011;35177;45.900;5.946;2023-06-22T12:17:00;6.07;;;2.08;;
49310;SDS011;35177;45.900;5.946;2023-06-22T12:19:26;9.60;;;2.30;;
49310;SDS011;35177;45.900;5.946;2023-06-22T12:21:51;6.53;;;2.33;;
49310;SDS011;35177;45.900;5.946;2023-06-22T12:24:17;7.05;;;2.10;;
49310;SDS011;35177;45.900;5.946;2023-06-22T12:26:42;9.93;;;2.20;;
49310;SDS011;35177;45.900;5.946;2023-06-22T12:29:07;16.05;;;2.65;;
49310;SDS011;35177;45.900;5.946;2023-06-22T12:31:33;8.93;;;2.50;;
49310;SDS011;35177;45.900;5.946;2023-06-22T12:33:58;13.32;;;2.70;;
49310;SDS011;35177;45.900;5.946;2023-06-22T12:36:24;8.65;;;3.85;;
49310;SDS011;35177;45.900;5.946;2023-06-22T12:38:49;13.88;;;3.00;;
49310;SDS011;35177;45.900;5.946;2023-06-22T12:41:16;8.32;;;2.50;;
49310;SDS011;35177;45.900;5.946;2023-06-22T12:43:42;7.80;;;2.55;;
49310;SDS011;35177;45.900;5.946;2023-06-22T12:46:07;11.32;;;2.85;;
49310;SDS011;35177;45.900;5.946;2023-06-22T12:48:33;9.60;;;2.58;;
49310;SDS011;35177;45.900;5.946;2023-06-22T12:50:58;7.88;;;2.20;;
49310;SDS011;35177;45.900;5.946;2023-06-22T12:53:24;10.20;;;2.83;;
49310;SDS011;35177;45.900;5.946;2023-06-22T12:55:52;6.30;;;2.20;;
49310;SDS011;35177;45.900;5.946;2023-06-22T12:58:17;5.20;;;2.42;;
49310;SDS011;35177;45.900;5.946;2023-06-22T13:00:43;6.40;;;2.40;;
49310;SDS011;35177;45.900;5.946;2023-06-22T13:03:10;12.68;;;3.30;;
49310;SDS011;35177;45.900;5.946;2023-06-22T13:05:35;10.45;;;3.53;;
49310;SDS011;35177;45.900;5.946;2023-06-22T13:08:01;7.20;;;2.65;;
49310;SDS011;35177;45.900;5.946;2023-06-22T13:10:26;8.35;;;2.63;;
49310;SDS011;35177;45.900;5.946;2023-06-22T13:12:52;7.32;;;2.67;;
49310;SDS011;35177;45.900;5.946;2023-06-22T13:15:25;8.20;;;2.65;;
49310;SDS011;35177;45.900;5.946;2023-06-22T13:17:50;8.35;;;2.40;;
49310;SDS011;35177;45.900;5.946;2023-06-22T13:20:17;10.48;;;2.80;;
49310;SDS011;35177;45.900;5.946;2023-06-22T13:22:42;11.02;;;2.88;;
49310;SDS011;35177;45.900;5.946;2023-06-22T13:25:08;10.30;;;2.80;;
49310;SDS011;35177;45.900;5.946;2023-06-22T13:27:37;16.23;;;2.55;;
49310;SDS011;35177;45.900;5.946;2023-06-22T13:30:06;7.55;;;2.92;;
49310;SDS011;35177;45.900;5.946;2023-06-22T13:32:32;10.50;;;2.60;;
49310;SDS011;35177;45.900;5.946;2023-06-22T13:34:57;9.40;;;2.67;;
49310;SDS011;35177;45.900;5.946;2023-06-22T13:37:23;9.68;;;2.67;;
49310;SDS011;35177;45.900;5.946;2023-06-22T13:39:48;10.55;;;3.03;;
49310;SDS011;35177;45.900;5.946;2023-06-22T13:42:14;5.72;;;2.72;;
49310;SDS011;35177;45.900;5.946;2023-06-22T13:44:39;9.05;;;3.40;;
49310;SDS011;35177;45.900;5.946;2023-06-22T13:47:05;9.68;;;2.90;;
49310;SDS011;35177;45.900;5.946;2023-06-22T13:49:31;6.90;;;2.35;;
49310;SDS011;35177;45.900;5.946;2023-06-22T13:51:57;13.45;;;3.47;;
49310;SDS011;35177;45.900;5.946;2023-06-22T13:54:22;8.82;;;3.10;;
49310;SDS011;35177;45.900;5.946;2023-06-22T13:56:48;10.38;;;3.05;;
49310;SDS011;35177;45.900;5.946;2023-06-22T13:59:13;8.73;;;3.33;;
49310;SDS011;35177;45.900;5.946;2023-06-22T14:01:39;9.45;;;2.65;;
49310;SDS011;35177;45.900;5.946;2023-06-22T14:04:05;7.18;;;2.75;;
49310;SDS011;35177;45.900;5.946;2023-06-22T14:06:30;9.00;;;3.15;;
49310;SDS011;35177;45.900;5.946;2023-06-22T14:08:56;3.08;;;1.90;;
49310;SDS011;35177;45.900;5.946;2023-06-22T14:11:21;4.50;;;2.08;;
49310;SDS011;35177;45.900;5.946;2023-06-22T14:13:47;2.78;;;1.95;;
49310;SDS011;35177;45.900;5.946;2023-06-22T14:16:12;7.28;;;2.20;;
49310;SDS011;35177;45.900;5.946;2023-06-22T14:18:38;9.38;;;2.28;;
49310;SDS011;35177;45.900;5.946;2023-06-22T14:21:04;5.20;;;1.90;;
49310;SDS011;35177;45.900;5.946;2023-06-22T14:23:29;14.25;;;2.28;;
49310;SDS011;35177;45.900;5.946;2023-06-22T14:25:54;3.03;;;1.77;;
49310;SDS011;35177;45.900;5.946;2023-06-22T14:28:20;8.93;;;2.38;;
49310;SDS011;35177;45.900;5.946;2023-06-22T14:30:45;10.60;;;2.60;;
49310;SDS011;35177;45.900;5.946;2023-06-22T14:33:13;9.93;;;2.95;;
49310;SDS011;35177;45.900;5.946;2023-06-22T14:35:38;7.78;;;2.03;;
49310;SDS011;35177;45.900;5.946;2023-06-22T14:38:04;6.65;;;2.38;;
49310;SDS011;35177;45.900;5.946;2023-06-22T14:40:29;5.53;;;2.30;;
49310;SDS011;35177;45.900;5.946;2023-06-22T14:42:55;6.72;;;2.13;;
49310;SDS011;35177;45.900;5.946;2023-06-22T14:45:22;11.80;;;2.13;;